sensor_id;sensor_type;location;lat;lon;timestamp;P1;durP1;ratioP1;P2;durP2;ratioP2
9783;SDS011;4931;44.874;-1.092;2023-05-21T00:01:39;9.43;;;6.10;;
9783;SDS011;4931;44.874;-1.092;2023-05-21T00:04:04;11.25;;;5.82;;
9783;SDS011;4931;44.874;-1.092;2023-05-21T00:06:33;13.82;;;6.50;;
9783;SDS011;4931;44.874;-1.092;2023-05-21T00:09:02;10.45;;;6.03;;
9783;SDS011;4931;44.874;-1.092;2023-05-21T00:11:29;10.52;;;5.47;;
9783;SDS011;4931;44.874;-1.092;2023-05-21T00:13:55;10.90;;;5.95;;
9783;SDS011;4931;44.874;-1.092;2023-05-21T00:16:21;10.32;;;5.72;;
9783;SDS011;4931;44.874;-1.092;2023-05-21T00:18:47;9.15;;;5.43;;
9783;SDS011;4931;44.874;-1.092;2023-05-21T00:21:16;9.07;;;5.88;;
9783;SDS011;4931;44.874;-1.092;2023-05-21T00:23:44;12.30;;;5.93;;
9783;SDS011;4931;44.874;-1.092;2023-05-21T00:26:12;7.57;;;5.10;;
9783;SDS011;4931;44.874;-1.092;2023-05-21T00:28:37;10.48;;;5.55;;
9783;SDS011;4931;44.874;-1.092;2023-05-21T00:31:03;8.45;;;5.20;;
9783;SDS011;4931;44.874;-1.092;2023-05-21T00:33:28;8.77;;;5.57;;
9783;SDS011;4931;44.874;-1.092;2023-05-21T00:35:54;9.80;;;5.40;;
9783;SDS011;4931;44.874;-1.092;2023-05-21T00:38:21;10.38;;;5.40;;
9783;SDS011;4931;44.874;-1.092;2023-05-21T00:40:48;9.43;;;5.55;;
9783;SDS011;4931;44.874;-1.092;2023-05-21T00:43:13;10.05;;;5.55;;
9783;SDS011;4931;44.874;-1.092;2023-05-21T00:45:39;9.27;;;4.90;;
9783;SDS011;4931;44.874;-1.092;2023-05-21T00:48:08;9.55;;;5.53;;
9783;SDS011;4931;44.874;-1.092;2023-05-21T00:50:34;8.80;;;5.32;;
9783;SDS011;4931;44.874;-1.092;2023-05-21T00:53:00;10.30;;;5.78;;
9783;SDS011;4931;44.874;-1.092;2023-05-21T00:55:25;12.25;;;5.07;;
9783;SDS011;4931;44.874;-1.092;2023-05-21T00:57:51;12.05;;;4.70;;
9783;SDS011;4931;44.874;-1.092;2023-05-21T01:00:17;9.32;;;5.20;;
9783;SDS011;4931;44.874;-1.092;2023-05-21T01:02:43;9.63;;;5.40;;
9783;SDS011;4931;44.874;-1.092;2023-05-21T01:05:09;6.65;;;5.10;;
9783;SDS011;4931;44.874;-1.092;2023-05-21T01:07:39;7.28;;;5.50;;
9783;SDS011;4931;44.874;-1.092;2023-05-21T01:10:06;10.10;;;5.70;;
9783;SDS011;4931;44.874;-1.092;2023-05-21T01:12:34;8.15;;;5.38;;
9783;SDS011;4931;44.874;-1.092;2023-05-21T01:15:01;7.95;;;5.53;;
9783;SDS011;4931;44.874;-1.092;2023-05-21T01:17:28;8.27;;;5.50;;
9783;SDS011;4931;44.874;-1.092;2023-05-21T01:19:56;10.63;;;5.20;;
9783;SDS011;4931;44.874;-1.092;2023-05-21T01:22:22;8.18;;;5.25;;
9783;SDS011;4931;44.874;-1.092;2023-05-21T01:24:49;10.48;;;5.32;;
9783;SDS011;4931;44.874;-1.092;2023-05-21T01:27:17;8.95;;;5.40;;
9783;SDS011;4931;44.874;-1.092;2023-05-21T01:29:42;6.32;;;4.82;;
9783;SDS011;4931;44.874;-1.092;2023-05-21T01:32:16;6.80;;;5.25;;
9783;SDS011;4931;44.874;-1.092;2023-05-21T01:35:34;8.15;;;5.20;;
9783;SDS011;4931;44.874;-1.092;2023-05-21T01:43:06;6.47;;;5.10;;
9783;SDS011;4931;44.874;-1.092;2023-05-21T01:45:33;8.27;;;5.10;;
9783;SDS011;4931;44.874;-1.092;2023-05-21T01:48:02;8.20;;;4.60;;
9783;SDS011;4931;44.874;-1.092;2023-05-21T01:50:29;9.27;;;5.13;;
9783;SDS011;4931;44.874;-1.092;2023-05-21T01:52:56;10.35;;;5.50;;
9783;SDS011;4931;44.874;-1.092;2023-05-21T01:55:22;9.65;;;5.03;;
9783;SDS011;4931;44.874;-1.092;2023-05-21T01:57:52;7.82;;;5.13;;
9783;SDS011;4931;44.874;-1.092;2023-05-21T02:00:22;9.70;;;4.75;;
9783;SDS011;4931;44.874;-1.092;2023-05-21T02:02:49;12.20;;;5.37;;
9783;SDS011;4931;44.874;-1.092;2023-05-21T02:05:14;9.57;;;5.80;;
9783;SDS011;4931;44.874;-1.092;2023-05-21T02:07:40;7.57;;;5.20;;
9783;SDS011;4931;44.874;-1.092;2023-05-21T02:10:08;9.10;;;5.40;;
9783;SDS011;4931;44.874;-1.092;2023-05-21T02:12:34;6.70;;;5.47;;
9783;SDS011;4931;44.874;-1.092;2023-05-21T02:14:59;8.25;;;5.93;;
9783;SDS011;4931;44.874;-1.092;2023-05-21T02:17:26;8.23;;;5.88;;
9783;SDS011;4931;44.874;-1.092;2023-05-21T02:19:55;9.50;;;6.00;;
9783;SDS011;4931;44.874;-1.092;2023-05-21T02:22:21;10.82;;;6.00;;
9783;SDS011;4931;44.874;-1.092;2023-05-21T02:24:47;11.63;;;6.32;;
9783;SDS011;4931;44.874;-1.092;2023-05-21T02:27:13;9.02;;;6.18;;
9783;SDS011;4931;44.874;-1.092;2023-05-21T02:29:41;10.77;;;6.60;;
9783;SDS011;4931;44.874;-1.092;2023-05-21T02:32:07;8.32;;;6.00;;
9783;SDS011;4931;44.874;-1.092;2023-05-21T02:34:32;11.63;;;6.57;;
9783;SDS011;4931;44.874;-1.092;2023-05-21T02:36:59;7.72;;;6.07;;
9783;SDS011;4931;44.874;-1.092;2023-05-21T02:39:25;9.43;;;5.93;;
9783;SDS011;4931;44.874;-1.092;2023-05-21T02:41:51;11.15;;;7.68;;
9783;SDS011;4931;44.874;-1.092;2023-05-21T02:44:16;7.28;;;6.15;;
9783;SDS011;4931;44.874;-1.092;2023-05-21T02:46:43;10.68;;;6.28;;
9783;SDS011;4931;44.874;-1.092;2023-05-21T02:49:08;7.53;;;5.57;;
9783;SDS011;4931;44.874;-1.092;2023-05-21T02:51:34;9.35;;;6.25;;
9783;SDS011;4931;44.874;-1.092;2023-05-21T02:54:00;8.45;;;5.60;;
9783;SDS011;4931;44.874;-1.092;2023-05-21T02:56:25;6.82;;;5.65;;
9783;SDS011;4931;44.874;-1.092;2023-05-21T02:58:51;10.63;;;6.13;;
9783;SDS011;4931;44.874;-1.092;2023-05-21T03:01:16;8.05;;;6.10;;
9783;SDS011;4931;44.874;-1.092;2023-05-21T03:03:42;8.80;;;6.32;;
9783;SDS011;4931;44.874;-1.092;2023-05-21T03:06:07;12.45;;;6.32;;
9783;SDS011;4931;44.874;-1.092;2023-05-21T03:08:34;7.20;;;5.70;;
9783;SDS011;4931;44.874;-1.092;2023-05-21T03:11:00;8.38;;;5.47;;
9783;SDS011;4931;44.874;-1.092;2023-05-21T03:13:26;9.70;;;5.50;;
9783;SDS011;4931;44.874;-1.092;2023-05-21T03:15:51;9.60;;;6.00;;
9783;SDS011;4931;44.874;-1.092;2023-05-21T03:18:20;10.57;;;5.88;;
9783;SDS011;4931;44.874;-1.092;2023-05-21T03:20:48;9.30;;;5.88;;
9783;SDS011;4931;44.874;-1.092;2023-05-21T03:23:14;7.55;;;5.53;;
9783;SDS011;4931;44.874;-1.092;2023-05-21T03:25:40;9.55;;;5.90;;
9783;SDS011;4931;44.874;-1.092;2023-05-21T03:28:05;7.68;;;5.68;;
9783;SDS011;4931;44.874;-1.092;2023-05-21T03:30:31;7.43;;;6.00;;
9783;SDS011;4931;44.874;-1.092;2023-05-21T03:32:57;9.00;;;5.72;;
9783;SDS011;4931;44.874;-1.092;2023-05-21T03:35:23;9.23;;;5.72;;
9783;SDS011;4931;44.874;-1.092;2023-05-21T03:37:49;6.93;;;5.60;;
9783;SDS011;4931;44.874;-1.092;2023-05-21T03:40:15;9.18;;;5.50;;
9783;SDS011;4931;44.874;-1.092;2023-05-21T03:42:40;8.65;;;6.07;;
9783;SDS011;4931;44.874;-1.092;2023-05-21T03:45:06;10.43;;;6.65;;
9783;SDS011;4931;44.874;-1.092;2023-05-21T03:47:32;9.65;;;6.45;;
9783;SDS011;4931;44.874;-1.092;2023-05-21T03:49:59;7.50;;;5.90;;
9783;SDS011;4931;44.874;-1.092;2023-05-21T03:52:25;8.80;;;6.45;;
9783;SDS011;4931;44.874;-1.092;2023-05-21T03:54:50;10.05;;;6.57;;
9783;SDS011;4931;44.874;-1.092;2023-05-21T03:57:16;9.57;;;6.43;;
9783;SDS011;4931;44.874;-1.092;2023-05-21T03:59:41;8.90;;;6.35;;
9783;SDS011;4931;44.874;-1.092;2023-05-21T04:02:07;8.45;;;5.95;;
9783;SDS011;4931;44.874;-1.092;2023-05-21T04:04:32;8.30;;;6.30;;
9783;SDS011;4931;44.874;-1.092;2023-05-21T04:06:58;9.40;;;5.80;;
9783;SDS011;4931;44.874;-1.092;2023-05-21T04:09:23;10.68;;;6.03;;
9783;SDS011;4931;44.874;-1.092;2023-05-21T04:11:49;12.15;;;6.35;;
9783;SDS011;4931;44.874;-1.092;2023-05-21T04:14:14;10.43;;;6.20;;
9783;SDS011;4931;44.874;-1.092;2023-05-21T04:16:40;9.50;;;6.40;;
9783;SDS011;4931;44.874;-1.092;2023-05-21T04:19:08;6.97;;;6.10;;
9783;SDS011;4931;44.874;-1.092;2023-05-21T04:21:33;9.48;;;6.25;;
9783;SDS011;4931;44.874;-1.092;2023-05-21T04:24:00;10.05;;;6.03;;
9783;SDS011;4931;44.874;-1.092;2023-05-21T04:26:25;10.02;;;5.97;;
9783;SDS011;4931;44.874;-1.092;2023-05-21T04:28:52;9.00;;;5.97;;
9783;SDS011;4931;44.874;-1.092;2023-05-21T04:31:18;9.82;;;5.72;;
9783;SDS011;4931;44.874;-1.092;2023-05-21T04:33:44;10.23;;;5.72;;
9783;SDS011;4931;44.874;-1.092;2023-05-21T04:36:10;8.85;;;5.95;;
9783;SDS011;4931;44.874;-1.092;2023-05-21T04:38:36;10.20;;;6.65;;
9783;SDS011;4931;44.874;-1.092;2023-05-21T04:41:02;8.30;;;6.22;;
9783;SDS011;4931;44.874;-1.092;2023-05-21T04:43:28;8.98;;;5.68;;
9783;SDS011;4931;44.874;-1.092;2023-05-21T04:45:54;8.57;;;5.93;;
9783;SDS011;4931;44.874;-1.092;2023-05-21T04:48:23;9.48;;;6.25;;
9783;SDS011;4931;44.874;-1.092;2023-05-21T04:50:50;8.32;;;6.10;;
9783;SDS011;4931;44.874;-1.092;2023-05-21T04:53:17;11.15;;;8.38;;
9783;SDS011;4931;44.874;-1.092;2023-05-21T04:55:42;15.30;;;12.68;;
9783;SDS011;4931;44.874;-1.092;2023-05-21T04:58:08;15.07;;;11.80;;
9783;SDS011;4931;44.874;-1.092;2023-05-21T05:00:37;11.68;;;10.05;;
9783;SDS011;4931;44.874;-1.092;2023-05-21T05:03:03;8.70;;;7.10;;
9783;SDS011;4931;44.874;-1.092;2023-05-21T05:05:29;10.93;;;7.70;;
9783;SDS011;4931;44.874;-1.092;2023-05-21T05:07:55;11.88;;;8.43;;
9783;SDS011;4931;44.874;-1.092;2023-05-21T05:10:22;11.48;;;8.93;;
9783;SDS011;4931;44.874;-1.092;2023-05-21T05:12:47;12.25;;;8.90;;
9783;SDS011;4931;44.874;-1.092;2023-05-21T05:15:13;14.05;;;8.93;;
9783;SDS011;4931;44.874;-1.092;2023-05-21T05:17:40;12.23;;;8.60;;
9783;SDS011;4931;44.874;-1.092;2023-05-21T05:20:06;11.32;;;7.63;;
9783;SDS011;4931;44.874;-1.092;2023-05-21T05:22:32;11.77;;;7.80;;
9783;SDS011;4931;44.874;-1.092;2023-05-21T05:24:58;13.00;;;7.55;;
9783;SDS011;4931;44.874;-1.092;2023-05-21T05:27:23;8.93;;;7.18;;
9783;SDS011;4931;44.874;-1.092;2023-05-21T05:29:48;11.73;;;7.20;;
9783;SDS011;4931;44.874;-1.092;2023-05-21T05:32:14;14.43;;;7.53;;
9783;SDS011;4931;44.874;-1.092;2023-05-21T05:34:39;13.43;;;7.07;;
9783;SDS011;4931;44.874;-1.092;2023-05-21T05:37:06;8.38;;;6.18;;
9783;SDS011;4931;44.874;-1.092;2023-05-21T05:39:32;9.75;;;7.15;;
9783;SDS011;4931;44.874;-1.092;2023-05-21T05:41:57;11.32;;;8.20;;
9783;SDS011;4931;44.874;-1.092;2023-05-21T05:44:23;12.98;;;8.40;;
9783;SDS011;4931;44.874;-1.092;2023-05-21T05:46:48;15.02;;;8.70;;
9783;SDS011;4931;44.874;-1.092;2023-05-21T05:49:14;16.67;;;11.65;;
9783;SDS011;4931;44.874;-1.092;2023-05-21T05:51:39;13.73;;;9.57;;
9783;SDS011;4931;44.874;-1.092;2023-05-21T05:54:05;14.43;;;9.90;;
9783;SDS011;4931;44.874;-1.092;2023-05-21T05:56:30;13.05;;;8.63;;
9783;SDS011;4931;44.874;-1.092;2023-05-21T05:58:57;12.63;;;9.13;;
9783;SDS011;4931;44.874;-1.092;2023-05-21T06:01:23;13.32;;;8.80;;
9783;SDS011;4931;44.874;-1.092;2023-05-21T06:03:49;12.65;;;9.43;;
9783;SDS011;4931;44.874;-1.092;2023-05-21T06:06:14;15.55;;;9.20;;
9783;SDS011;4931;44.874;-1.092;2023-05-21T06:08:41;13.20;;;8.77;;
9783;SDS011;4931;44.874;-1.092;2023-05-21T06:11:06;14.07;;;8.70;;
9783;SDS011;4931;44.874;-1.092;2023-05-21T06:13:32;19.67;;;9.23;;
9783;SDS011;4931;44.874;-1.092;2023-05-21T06:15:57;13.10;;;8.10;;
9783;SDS011;4931;44.874;-1.092;2023-05-21T06:18:23;12.68;;;8.93;;
9783;SDS011;4931;44.874;-1.092;2023-05-21T06:20:48;11.95;;;9.05;;
9783;SDS011;4931;44.874;-1.092;2023-05-21T06:23:14;12.23;;;9.45;;
9783;SDS011;4931;44.874;-1.092;2023-05-21T06:25:40;13.57;;;9.75;;
9783;SDS011;4931;44.874;-1.092;2023-05-21T06:28:05;14.95;;;9.88;;
9783;SDS011;4931;44.874;-1.092;2023-05-21T06:30:31;13.52;;;10.27;;
9783;SDS011;4931;44.874;-1.092;2023-05-21T06:32:56;13.77;;;9.68;;
9783;SDS011;4931;44.874;-1.092;2023-05-21T06:35:22;15.38;;;9.88;;
9783;SDS011;4931;44.874;-1.092;2023-05-21T06:37:47;18.58;;;10.40;;
9783;SDS011;4931;44.874;-1.092;2023-05-21T06:40:13;15.25;;;10.38;;
9783;SDS011;4931;44.874;-1.092;2023-05-21T06:42:38;14.32;;;10.63;;
9783;SDS011;4931;44.874;-1.092;2023-05-21T06:45:04;15.52;;;9.55;;
9783;SDS011;4931;44.874;-1.092;2023-05-21T06:47:30;13.32;;;9.40;;
9783;SDS011;4931;44.874;-1.092;2023-05-21T06:49:56;14.27;;;9.35;;
9783;SDS011;4931;44.874;-1.092;2023-05-21T06:52:25;11.38;;;9.23;;
9783;SDS011;4931;44.874;-1.092;2023-05-21T06:54:51;13.15;;;9.77;;
9783;SDS011;4931;44.874;-1.092;2023-05-21T06:57:17;13.32;;;9.63;;
9783;SDS011;4931;44.874;-1.092;2023-05-21T06:59:42;14.60;;;9.55;;
9783;SDS011;4931;44.874;-1.092;2023-05-21T07:02:08;14.68;;;9.40;;
9783;SDS011;4931;44.874;-1.092;2023-05-21T07:04:34;14.32;;;9.02;;
9783;SDS011;4931;44.874;-1.092;2023-05-21T07:07:00;11.43;;;8.45;;
9783;SDS011;4931;44.874;-1.092;2023-05-21T07:09:28;12.20;;;8.80;;
9783;SDS011;4931;44.874;-1.092;2023-05-21T07:11:54;12.40;;;8.32;;
9783;SDS011;4931;44.874;-1.092;2023-05-21T07:14:19;13.77;;;8.77;;
9783;SDS011;4931;44.874;-1.092;2023-05-21T07:16:45;10.60;;;7.45;;
9783;SDS011;4931;44.874;-1.092;2023-05-21T07:19:10;12.57;;;7.88;;
9783;SDS011;4931;44.874;-1.092;2023-05-21T07:21:36;11.27;;;7.43;;
9783;SDS011;4931;44.874;-1.092;2023-05-21T07:24:01;10.82;;;7.22;;
9783;SDS011;4931;44.874;-1.092;2023-05-21T07:26:27;12.10;;;7.60;;
9783;SDS011;4931;44.874;-1.092;2023-05-21T07:28:52;11.05;;;7.50;;
9783;SDS011;4931;44.874;-1.092;2023-05-21T07:31:17;11.00;;;7.38;;
9783;SDS011;4931;44.874;-1.092;2023-05-21T07:33:43;9.68;;;7.57;;
9783;SDS011;4931;44.874;-1.092;2023-05-21T07:36:08;9.52;;;7.43;;
9783;SDS011;4931;44.874;-1.092;2023-05-21T07:38:34;12.38;;;7.75;;
9783;SDS011;4931;44.874;-1.092;2023-05-21T07:40:59;9.60;;;7.10;;
9783;SDS011;4931;44.874;-1.092;2023-05-21T07:43:25;9.25;;;7.10;;
9783;SDS011;4931;44.874;-1.092;2023-05-21T07:45:51;10.93;;;7.15;;
9783;SDS011;4931;44.874;-1.092;2023-05-21T07:48:17;12.23;;;7.40;;
9783;SDS011;4931;44.874;-1.092;2023-05-21T07:50:42;9.57;;;6.72;;
9783;SDS011;4931;44.874;-1.092;2023-05-21T07:53:09;11.90;;;7.03;;
9783;SDS011;4931;44.874;-1.092;2023-05-21T07:55:34;9.70;;;6.90;;
9783;SDS011;4931;44.874;-1.092;2023-05-21T07:58:00;9.75;;;6.32;;
9783;SDS011;4931;44.874;-1.092;2023-05-21T08:00:25;11.18;;;6.80;;
9783;SDS011;4931;44.874;-1.092;2023-05-21T08:02:51;8.13;;;6.40;;
9783;SDS011;4931;44.874;-1.092;2023-05-21T08:05:16;9.65;;;6.60;;
9783;SDS011;4931;44.874;-1.092;2023-05-21T08:07:43;9.55;;;6.65;;
9783;SDS011;4931;44.874;-1.092;2023-05-21T08:10:08;8.80;;;6.90;;
9783;SDS011;4931;44.874;-1.092;2023-05-21T08:12:34;10.05;;;6.93;;
9783;SDS011;4931;44.874;-1.092;2023-05-21T08:14:59;9.68;;;6.88;;
9783;SDS011;4931;44.874;-1.092;2023-05-21T08:17:25;9.15;;;6.40;;
9783;SDS011;4931;44.874;-1.092;2023-05-21T08:19:52;10.20;;;6.32;;
9783;SDS011;4931;44.874;-1.092;2023-05-21T08:22:18;8.63;;;6.55;;
9783;SDS011;4931;44.874;-1.092;2023-05-21T08:24:43;11.65;;;7.00;;
9783;SDS011;4931;44.874;-1.092;2023-05-21T08:27:09;9.50;;;6.25;;
9783;SDS011;4931;44.874;-1.092;2023-05-21T08:29:35;10.02;;;6.95;;
9783;SDS011;4931;44.874;-1.092;2023-05-21T08:32:00;10.18;;;6.78;;
9783;SDS011;4931;44.874;-1.092;2023-05-21T08:34:26;9.40;;;6.60;;
9783;SDS011;4931;44.874;-1.092;2023-05-21T08:36:51;8.55;;;6.68;;
9783;SDS011;4931;44.874;-1.092;2023-05-21T08:39:18;11.52;;;6.80;;
9783;SDS011;4931;44.874;-1.092;2023-05-21T08:41:44;11.35;;;6.60;;
9783;SDS011;4931;44.874;-1.092;2023-05-21T08:44:14;10.18;;;6.63;;
9783;SDS011;4931;44.874;-1.092;2023-05-21T08:46:44;11.70;;;6.85;;
9783;SDS011;4931;44.874;-1.092;2023-05-21T08:49:13;9.15;;;6.50;;
9783;SDS011;4931;44.874;-1.092;2023-05-21T08:51:43;7.35;;;6.10;;
9783;SDS011;4931;44.874;-1.092;2023-05-21T08:54:10;9.70;;;6.53;;
9783;SDS011;4931;44.874;-1.092;2023-05-21T08:56:37;13.80;;;7.10;;
9783;SDS011;4931;44.874;-1.092;2023-05-21T08:59:05;14.15;;;6.90;;
9783;SDS011;4931;44.874;-1.092;2023-05-21T09:01:31;20.38;;;13.15;;
9783;SDS011;4931;44.874;-1.092;2023-05-21T09:03:57;12.30;;;8.23;;
9783;SDS011;4931;44.874;-1.092;2023-05-21T09:06:25;13.55;;;7.43;;
9783;SDS011;4931;44.874;-1.092;2023-05-21T09:08:59;8.10;;;6.72;;
9783;SDS011;4931;44.874;-1.092;2023-05-21T09:11:30;8.75;;;6.43;;
9783;SDS011;4931;44.874;-1.092;2023-05-21T09:13:56;10.77;;;6.60;;
9783;SDS011;4931;44.874;-1.092;2023-05-21T09:16:22;9.48;;;6.80;;
9783;SDS011;4931;44.874;-1.092;2023-05-21T09:18:47;11.98;;;6.47;;
9783;SDS011;4931;44.874;-1.092;2023-05-21T09:21:29;10.82;;;6.60;;
9783;SDS011;4931;44.874;-1.092;2023-05-21T09:23:58;8.68;;;5.95;;
9783;SDS011;4931;44.874;-1.092;2023-05-21T09:26:25;8.35;;;6.65;;
9783;SDS011;4931;44.874;-1.092;2023-05-21T09:28:51;12.43;;;6.63;;
9783;SDS011;4931;44.874;-1.092;2023-05-21T09:31:24;11.55;;;6.80;;
9783;SDS011;4931;44.874;-1.092;2023-05-21T09:33:50;10.35;;;6.50;;
9783;SDS011;4931;44.874;-1.092;2023-05-21T09:36:17;9.18;;;6.43;;
9783;SDS011;4931;44.874;-1.092;2023-05-21T09:38:47;10.43;;;6.57;;
9783;SDS011;4931;44.874;-1.092;2023-05-21T09:41:14;10.52;;;6.70;;
9783;SDS011;4931;44.874;-1.092;2023-05-21T09:43:42;8.45;;;6.65;;
9783;SDS011;4931;44.874;-1.092;2023-05-21T09:46:09;10.20;;;6.60;;
9783;SDS011;4931;44.874;-1.092;2023-05-21T09:51:07;12.25;;;6.47;;
9783;SDS011;4931;44.874;-1.092;2023-05-21T09:53:34;10.63;;;6.28;;
9783;SDS011;4931;44.874;-1.092;2023-05-21T09:56:00;9.00;;;6.10;;
9783;SDS011;4931;44.874;-1.092;2023-05-21T09:58:27;8.27;;;5.80;;
9783;SDS011;4931;44.874;-1.092;2023-05-21T10:00:53;8.02;;;5.72;;
9783;SDS011;4931;44.874;-1.092;2023-05-21T10:03:18;9.50;;;6.57;;
9783;SDS011;4931;44.874;-1.092;2023-05-21T10:05:50;7.40;;;5.72;;
9783;SDS011;4931;44.874;-1.092;2023-05-21T10:08:17;8.15;;;5.47;;
9783;SDS011;4931;44.874;-1.092;2023-05-21T10:10:46;8.73;;;5.80;;
9783;SDS011;4931;44.874;-1.092;2023-05-21T10:13:13;8.80;;;6.07;;
9783;SDS011;4931;44.874;-1.092;2023-05-21T10:15:41;8.43;;;5.55;;
9783;SDS011;4931;44.874;-1.092;2023-05-21T10:18:10;10.20;;;5.60;;
9783;SDS011;4931;44.874;-1.092;2023-05-21T10:20:37;6.43;;;5.18;;
9783;SDS011;4931;44.874;-1.092;2023-05-21T10:23:04;8.15;;;5.13;;
9783;SDS011;4931;44.874;-1.092;2023-05-21T10:25:30;9.18;;;5.32;;
9783;SDS011;4931;44.874;-1.092;2023-05-21T10:27:58;6.88;;;5.63;;
9783;SDS011;4931;44.874;-1.092;2023-05-21T10:30:24;8.65;;;5.22;;
9783;SDS011;4931;44.874;-1.092;2023-05-21T10:32:50;7.60;;;5.93;;
9783;SDS011;4931;44.874;-1.092;2023-05-21T10:35:15;7.10;;;5.20;;
9783;SDS011;4931;44.874;-1.092;2023-05-21T10:37:44;7.32;;;5.28;;
9783;SDS011;4931;44.874;-1.092;2023-05-21T10:40:10;6.25;;;5.20;;
9783;SDS011;4931;44.874;-1.092;2023-05-21T10:45:46;8.25;;;5.50;;
9783;SDS011;4931;44.874;-1.092;2023-05-21T10:51:28;7.23;;;5.53;;
9783;SDS011;4931;44.874;-1.092;2023-05-21T10:57:12;7.00;;;5.65;;
9783;SDS011;4931;44.874;-1.092;2023-05-21T10:59:41;6.35;;;4.85;;
9783;SDS011;4931;44.874;-1.092;2023-05-21T11:02:09;7.65;;;5.55;;
9783;SDS011;4931;44.874;-1.092;2023-05-21T11:04:36;7.55;;;5.72;;
9783;SDS011;4931;44.874;-1.092;2023-05-21T11:07:05;9.02;;;5.65;;
9783;SDS011;4931;44.874;-1.092;2023-05-21T11:09:31;8.52;;;5.43;;
9783;SDS011;4931;44.874;-1.092;2023-05-21T11:11:57;6.22;;;5.22;;
9783;SDS011;4931;44.874;-1.092;2023-05-21T11:14:35;7.47;;;6.30;;
9783;SDS011;4931;44.874;-1.092;2023-05-21T11:19:35;16.10;;;11.32;;
9783;SDS011;4931;44.874;-1.092;2023-05-21T11:22:23;6.93;;;5.20;;
9783;SDS011;4931;44.874;-1.092;2023-05-21T11:24:51;6.70;;;4.80;;
9783;SDS011;4931;44.874;-1.092;2023-05-21T11:30:06;6.85;;;5.10;;
9783;SDS011;4931;44.874;-1.092;2023-05-21T11:35:56;7.57;;;5.10;;
9783;SDS011;4931;44.874;-1.092;2023-05-21T11:38:30;5.93;;;5.00;;
9783;SDS011;4931;44.874;-1.092;2023-05-21T11:41:01;6.63;;;4.85;;
9783;SDS011;4931;44.874;-1.092;2023-05-21T11:43:27;7.50;;;4.85;;
9783;SDS011;4931;44.874;-1.092;2023-05-21T11:45:53;6.00;;;5.40;;
9783;SDS011;4931;44.874;-1.092;2023-05-21T11:48:23;7.65;;;5.40;;
9783;SDS011;4931;44.874;-1.092;2023-05-21T11:50:49;7.93;;;5.50;;
9783;SDS011;4931;44.874;-1.092;2023-05-21T11:53:14;7.20;;;5.47;;
9783;SDS011;4931;44.874;-1.092;2023-05-21T11:55:40;6.88;;;5.25;;
9783;SDS011;4931;44.874;-1.092;2023-05-21T11:58:08;9.38;;;7.80;;
9783;SDS011;4931;44.874;-1.092;2023-05-21T12:00:37;10.52;;;8.93;;
9783;SDS011;4931;44.874;-1.092;2023-05-21T12:03:06;20.58;;;14.50;;
9783;SDS011;4931;44.874;-1.092;2023-05-21T12:05:45;6.65;;;5.50;;
9783;SDS011;4931;44.874;-1.092;2023-05-21T12:08:12;10.77;;;7.47;;
9783;SDS011;4931;44.874;-1.092;2023-05-21T12:10:37;9.40;;;6.70;;
9783;SDS011;4931;44.874;-1.092;2023-05-21T12:13:06;10.13;;;7.80;;
9783;SDS011;4931;44.874;-1.092;2023-05-21T12:15:31;8.57;;;5.90;;
9783;SDS011;4931;44.874;-1.092;2023-05-21T12:17:57;8.52;;;6.53;;
9783;SDS011;4931;44.874;-1.092;2023-05-21T12:20:24;6.40;;;5.50;;
9783;SDS011;4931;44.874;-1.092;2023-05-21T12:22:51;7.40;;;5.60;;
9783;SDS011;4931;44.874;-1.092;2023-05-21T12:25:19;8.90;;;6.30;;
9783;SDS011;4931;44.874;-1.092;2023-05-21T12:27:45;9.52;;;5.93;;
9783;SDS011;4931;44.874;-1.092;2023-05-21T12:30:12;7.38;;;5.50;;
9783;SDS011;4931;44.874;-1.092;2023-05-21T12:32:41;9.90;;;5.53;;
9783;SDS011;4931;44.874;-1.092;2023-05-21T12:35:22;8.48;;;5.70;;
9783;SDS011;4931;44.874;-1.092;2023-05-21T12:37:48;5.93;;;4.72;;
9783;SDS011;4931;44.874;-1.092;2023-05-21T12:40:14;5.50;;;4.30;;
9783;SDS011;4931;44.874;-1.092;2023-05-21T12:42:40;4.95;;;4.15;;
9783;SDS011;4931;44.874;-1.092;2023-05-21T12:45:08;4.88;;;4.38;;
9783;SDS011;4931;44.874;-1.092;2023-05-21T12:47:35;5.88;;;4.85;;
9783;SDS011;4931;44.874;-1.092;2023-05-21T12:50:01;6.63;;;4.93;;
9783;SDS011;4931;44.874;-1.092;2023-05-21T12:52:28;8.02;;;5.40;;
9783;SDS011;4931;44.874;-1.092;2023-05-21T12:54:57;7.03;;;5.63;;
9783;SDS011;4931;44.874;-1.092;2023-05-21T12:57:24;6.10;;;5.22;;
9783;SDS011;4931;44.874;-1.092;2023-05-21T12:59:58;5.38;;;4.82;;
9783;SDS011;4931;44.874;-1.092;2023-05-21T13:02:25;9.27;;;5.47;;
9783;SDS011;4931;44.874;-1.092;2023-05-21T13:04:59;6.75;;;5.32;;
9783;SDS011;4931;44.874;-1.092;2023-05-21T13:07:26;7.90;;;5.88;;
9783;SDS011;4931;44.874;-1.092;2023-05-21T13:09:53;8.18;;;5.72;;
9783;SDS011;4931;44.874;-1.092;2023-05-21T13:12:20;6.35;;;5.30;;
9783;SDS011;4931;44.874;-1.092;2023-05-21T13:14:50;5.70;;;4.97;;
9783;SDS011;4931;44.874;-1.092;2023-05-21T13:17:18;8.18;;;6.20;;
9783;SDS011;4931;44.874;-1.092;2023-05-21T13:19:45;9.27;;;5.53;;
9783;SDS011;4931;44.874;-1.092;2023-05-21T13:22:32;7.75;;;5.50;;
9783;SDS011;4931;44.874;-1.092;2023-05-21T13:24:58;6.45;;;5.18;;
9783;SDS011;4931;44.874;-1.092;2023-05-21T13:27:23;8.43;;;5.60;;
9783;SDS011;4931;44.874;-1.092;2023-05-21T13:29:49;7.72;;;5.72;;
9783;SDS011;4931;44.874;-1.092;2023-05-21T13:32:14;7.63;;;5.63;;
9783;SDS011;4931;44.874;-1.092;2023-05-21T13:34:40;8.88;;;6.03;;
9783;SDS011;4931;44.874;-1.092;2023-05-21T13:37:05;6.50;;;5.68;;
9783;SDS011;4931;44.874;-1.092;2023-05-21T13:39:31;6.35;;;5.75;;
9783;SDS011;4931;44.874;-1.092;2023-05-21T13:41:56;7.32;;;6.07;;
9783;SDS011;4931;44.874;-1.092;2023-05-21T13:44:23;7.80;;;5.93;;
9783;SDS011;4931;44.874;-1.092;2023-05-21T13:46:48;8.30;;;6.25;;
9783;SDS011;4931;44.874;-1.092;2023-05-21T13:49:14;6.82;;;5.85;;
9783;SDS011;4931;44.874;-1.092;2023-05-21T13:51:39;8.10;;;5.72;;
9783;SDS011;4931;44.874;-1.092;2023-05-21T13:54:05;8.90;;;5.65;;
9783;SDS011;4931;44.874;-1.092;2023-05-21T13:56:30;5.80;;;5.20;;
9783;SDS011;4931;44.874;-1.092;2023-05-21T13:58:57;7.22;;;5.72;;
9783;SDS011;4931;44.874;-1.092;2023-05-21T14:01:23;8.70;;;5.47;;
9783;SDS011;4931;44.874;-1.092;2023-05-21T14:03:48;6.82;;;5.47;;
9783;SDS011;4931;44.874;-1.092;2023-05-21T14:06:14;5.78;;;5.18;;
9783;SDS011;4931;44.874;-1.092;2023-05-21T14:08:40;6.22;;;5.50;;
9783;SDS011;4931;44.874;-1.092;2023-05-21T14:11:06;6.07;;;5.28;;
9783;SDS011;4931;44.874;-1.092;2023-05-21T14:13:32;6.43;;;5.35;;
9783;SDS011;4931;44.874;-1.092;2023-05-21T14:15:57;7.07;;;5.30;;
9783;SDS011;4931;44.874;-1.092;2023-05-21T14:18:23;7.90;;;5.35;;
9783;SDS011;4931;44.874;-1.092;2023-05-21T14:20:48;9.05;;;5.70;;
9783;SDS011;4931;44.874;-1.092;2023-05-21T14:23:14;8.30;;;5.40;;
9783;SDS011;4931;44.874;-1.092;2023-05-21T14:25:40;6.82;;;5.65;;
9783;SDS011;4931;44.874;-1.092;2023-05-21T14:28:06;5.97;;;5.40;;
9783;SDS011;4931;44.874;-1.092;2023-05-21T14:30:31;5.95;;;5.35;;
9783;SDS011;4931;44.874;-1.092;2023-05-21T14:32:57;8.23;;;5.93;;
9783;SDS011;4931;44.874;-1.092;2023-05-21T14:35:22;7.90;;;6.10;;
9783;SDS011;4931;44.874;-1.092;2023-05-21T14:37:48;15.15;;;7.38;;
9783;SDS011;4931;44.874;-1.092;2023-05-21T14:40:13;8.95;;;6.43;;
9783;SDS011;4931;44.874;-1.092;2023-05-21T14:42:39;8.18;;;6.90;;
9783;SDS011;4931;44.874;-1.092;2023-05-21T14:45:04;9.85;;;6.30;;
9783;SDS011;4931;44.874;-1.092;2023-05-21T14:47:30;9.57;;;6.75;;
9783;SDS011;4931;44.874;-1.092;2023-05-21T14:49:56;11.35;;;6.43;;
9783;SDS011;4931;44.874;-1.092;2023-05-21T14:52:21;8.20;;;6.50;;
9783;SDS011;4931;44.874;-1.092;2023-05-21T14:54:47;9.70;;;6.18;;
9783;SDS011;4931;44.874;-1.092;2023-05-21T14:57:12;8.60;;;6.10;;
9783;SDS011;4931;44.874;-1.092;2023-05-21T14:59:38;9.18;;;6.60;;
9783;SDS011;4931;44.874;-1.092;2023-05-21T15:02:03;10.18;;;7.30;;
9783;SDS011;4931;44.874;-1.092;2023-05-21T15:04:29;13.75;;;7.75;;
9783;SDS011;4931;44.874;-1.092;2023-05-21T15:06:55;10.55;;;6.72;;
9783;SDS011;4931;44.874;-1.092;2023-05-21T15:09:20;10.70;;;7.10;;
9783;SDS011;4931;44.874;-1.092;2023-05-21T15:11:46;8.35;;;6.70;;
9783;SDS011;4931;44.874;-1.092;2023-05-21T15:14:16;7.28;;;6.47;;
9783;SDS011;4931;44.874;-1.092;2023-05-21T15:16:42;8.70;;;6.70;;
9783;SDS011;4931;44.874;-1.092;2023-05-21T15:19:07;8.45;;;7.43;;